This is the latest recevied weather packets stored in our database for station/object JE7UPL-13. If no packets are shown the sender has not sent any weather packets the latest 10 day(s).
| Time | Temp. | Humidity | Pressure | Rain* | Wind** | Luminosity | Snow |
|---|---|---|---|---|---|---|---|
| 1777514406 | 18.33° C | 32% | 1016.5 hPa | 0 mm | - | - | - |
| 1777513505 | 18.33° C | 33% | 1016.7 hPa | 0 mm | - | - | - |
| 1777511705 | 17.22° C | 30% | 1016.7 hPa | 0 mm | - | - | - |
| 1777509006 | 17.22° C | 29% | 1016.7 hPa | 0 mm | - | - | - |
| 1777507206 | 16.11° C | 32% | 1016.5 hPa | 0 mm | - | - | - |
| 1777505406 | 15.56° C | 34% | 1016.7 hPa | 0 mm | - | - | - |
| 1777493706 | 8.33° C | 71% | 1016.7 hPa | 0 mm | - | - | - |
| 1777491006 | 7.78° C | 71% | 1016.6 hPa | 0 mm | - | - | - |
| 1777490106 | 7.22° C | 74% | 1016.7 hPa | 0 mm | - | - | - |
| 1777478406 | 6.67° C | 79% | 1016.3 hPa | 0 mm | - | - | - |
| 1777469406 | 8.89° C | 73% | 1016 hPa | 0 mm | - | - | - |
| 1777468505 | 8.89° C | 72% | 1015.9 hPa | 0 mm | - | - | - |
| 1777465805 | 8.89° C | 75% | 1015.5 hPa | 0 mm | - | - | - |
| 1777462205 | 8.33° C | 75% | 1014.9 hPa | 0 mm | - | - | - |
| 1777461304 | 8.89° C | 74% | 1014.5 hPa | 0 mm | - | - | - |
| 1777460405 | 8.89° C | 72% | 1014.5 hPa | 0 mm | - | - | - |
| 1777457704 | 10° C | 67% | 1013.5 hPa | 0 mm | - | - | - |
| 1777456805 | 10.56° C | 63% | 1013.1 hPa | 0 mm | - | - | - |
| 1777455905 | 11.11° C | 62% | 1012.8 hPa | 0 mm | - | - | - |
| 1777455005 | 11.11° C | 60% | 1012.4 hPa | 0 mm | - | - | - |
| 1777454105 | 12.22° C | 55% | 1012.2 hPa | 0 mm | - | - | - |
| 1777453204 | 12.78° C | 53% | 1012.2 hPa | 0 mm | - | - | - |
| 1777451405 | 13.89° C | 52% | 1011.8 hPa | 0 mm | - | - | - |
| 1777450505 | 13.89° C | 49% | 1011.4 hPa | 0 mm | - | - | - |
| 1777449605 | 12.78° C | 52% | 1011.5 hPa | 0 mm | - | - | - |
* Rain latest hour (hover to see other rain measurements)
** Current wind speed in m/s (hover to see current wind gust speed)